ASA7005 PAJN-PASI
Flight info
| Callsign | ASA7005 |
|---|---|
| Flight time | N/A |
| Altitude | 15000 |
| Route | RODMN1 RODMN |
| Aircraft | B737/M-SDE2E3FGHIRWXY/LB1 |
Departure
| Time | 2026-04-16 18:48 |
|---|---|
| Airport | Juneau International Airport (PAJN) |
Arrival
| Time | N/A |
|---|---|
| Airport | Sitka Rocky Gutierrez Airport (PASI) |
| Time | Latitude | Longitude | Altitude | Speed | Heading |
|---|---|---|---|---|---|
| 2026-04-16 18:37 | 58.35847 | -134.58429 | 32 ft | 0 kts | 48° |
| 2026-04-16 18:38 | 58.35872 | -134.58463 | 33 ft | 0 kts | 103° |
| 2026-04-16 18:40 | 58.35875 | -134.58482 | 33 ft | 4 kts | 117° |
| 2026-04-16 18:40 | 58.35884 | -134.58517 | 31 ft | 3 kts | 109° |
| 2026-04-16 18:41 | 58.35884 | -134.58542 | 31 ft | 4 kts | 21° |
| 2026-04-16 18:41 | 58.35860 | -134.58555 | 32 ft | 4 kts | 18° |
| 2026-04-16 18:41 | 58.35835 | -134.58574 | 32 ft | 4 kts | 30° |
| 2026-04-16 18:41 | 58.35815 | -134.58605 | 30 ft | 4 kts | 61° |
| 2026-04-16 18:42 | 58.35810 | -134.58636 | 30 ft | 0 kts | 102° |
| 2026-04-16 18:45 | 58.35810 | -134.58634 | 29 ft | 0 kts | 102° |
| 2026-04-16 18:45 | 58.35803 | -134.58605 | 33 ft | 4 kts | 126° |
| 2026-04-16 18:45 | 58.35781 | -134.58602 | 33 ft | 3 kts | 206° |
| 2026-04-16 18:46 | 58.35762 | -134.58637 | 31 ft | 4 kts | 234° |
| 2026-04-16 18:46 | 58.35758 | -134.58718 | 33 ft | 9 kts | 279° |
| 2026-04-16 18:46 | 58.35777 | -134.58861 | 33 ft | 14 kts | 285° |
| 2026-04-16 18:46 | 58.35806 | -134.59061 | 33 ft | 17 kts | 285° |
| 2026-04-16 18:47 | 58.35836 | -134.59277 | 33 ft | 17 kts | 285° |
| 2026-04-16 18:47 | 58.35866 | -134.59485 | 33 ft | 16 kts | 285° |
| 2026-04-16 18:47 | 58.35855 | -134.59642 | 33 ft | 11 kts | 218° |
| 2026-04-16 18:47 | 58.35781 | -134.59651 | 34 ft | 11 kts | 145° |
| 2026-04-16 18:48 | 58.35768 | -134.59604 | 34 ft | 0 kts | 104° |
| 2026-04-16 18:48 | 58.35719 | -134.59235 | 36 ft | 71 kts | 104° |
| 2026-04-16 18:48 | 58.35524 | -134.57822 | 40 ft | 148 kts | 104° |
| 2026-04-16 18:48 | 58.35239 | -134.55740 | 753 ft | 166 kts | 105° |
| 2026-04-16 18:49 | 58.34796 | -134.53674 | 1869 ft | 167 kts | 114° |
| 2026-04-16 18:49 | 58.34326 | -134.51532 | 2582 ft | 196 kts | 122° |
| 2026-04-16 18:49 | 58.33306 | -134.49500 | 3030 ft | 225 kts | 141° |
| 2026-04-16 18:49 | 58.32062 | -134.47417 | 3748 ft | 248 kts | 137° |
| 2026-04-16 18:50 | 58.30794 | -134.45102 | 4857 ft | 254 kts | 139° |
| 2026-04-16 18:50 | 58.29533 | -134.42743 | 5920 ft | 263 kts | 136° |
| 2026-04-16 18:50 | 58.28275 | -134.40122 | 6911 ft | 272 kts | 135° |
| 2026-04-16 18:50 | 58.26990 | -134.37403 | 7879 ft | 280 kts | 134° |
| 2026-04-16 18:51 | 58.25682 | -134.34652 | 8837 ft | 288 kts | 135° |
| 2026-04-16 18:51 | 58.24077 | -134.32395 | 9745 ft | 290 kts | 164° |
| 2026-04-16 18:51 | 58.22090 | -134.32043 | 10543 ft | 291 kts | 195° |
| 2026-04-16 18:51 | 58.20193 | -134.33450 | 11253 ft | 296 kts | 216° |
| 2026-04-16 18:52 | 58.18494 | -134.35733 | 12072 ft | 302 kts | 222° |
| 2026-04-16 18:52 | 58.16829 | -134.38175 | 12991 ft | 308 kts | 224° |
| 2026-04-16 18:52 | 58.15128 | -134.40710 | 14018 ft | 311 kts | 224° |
| 2026-04-16 18:52 | 58.13412 | -134.43261 | 14675 ft | 317 kts | 224° |
| 2026-04-16 18:53 | 58.11629 | -134.45938 | 14994 ft | 340 kts | 224° |
| 2026-04-16 18:53 | 58.09713 | -134.48757 | 14993 ft | 362 kts | 223° |
| 2026-04-16 18:53 | 58.07713 | -134.51668 | 14999 ft | 364 kts | 223° |
| 2026-04-16 18:53 | 58.05685 | -134.54609 | 14989 ft | 367 kts | 223° |
| 2026-04-16 18:54 | 58.03649 | -134.57539 | 14986 ft | 366 kts | 223° |
| 2026-04-16 18:54 | 58.01617 | -134.60442 | 14990 ft | 366 kts | 223° |
| 2026-04-16 18:54 | 57.99586 | -134.63359 | 15001 ft | 366 kts | 223° |
| 2026-04-16 18:54 | 57.97576 | -134.66222 | 14983 ft | 367 kts | 223° |
| 2026-04-16 18:55 | 57.95533 | -134.69123 | 14981 ft | 368 kts | 223° |
| 2026-04-16 18:55 | 57.93488 | -134.72041 | 14974 ft | 368 kts | 223° |
| 2026-04-16 18:55 | 57.91448 | -134.74955 | 14985 ft | 367 kts | 223° |
| 2026-04-16 18:55 | 57.89432 | -134.77830 | 14985 ft | 369 kts | 223° |
| 2026-04-16 18:56 | 57.87369 | -134.80770 | 14994 ft | 375 kts | 223° |
| 2026-04-16 18:56 | 57.85283 | -134.83734 | 14990 ft | 374 kts | 223° |
| 2026-04-16 18:56 | 57.83207 | -134.86675 | 14992 ft | 373 kts | 223° |
| 2026-04-16 18:56 | 57.81129 | -134.89615 | 14989 ft | 374 kts | 223° |
| 2026-04-16 18:57 | 57.79031 | -134.92584 | 15004 ft | 380 kts | 223° |
| 2026-04-16 18:57 | 57.76942 | -134.95534 | 14995 ft | 378 kts | 223° |
| 2026-04-16 18:57 | 57.74874 | -134.98438 | 14906 ft | 363 kts | 223° |
| 2026-04-16 18:58 | 57.70925 | -135.03979 | 14177 ft | 346 kts | 223° |
| 2026-04-16 18:58 | 57.69015 | -135.06660 | 13720 ft | 339 kts | 223° |
| 2026-04-16 18:58 | 57.67162 | -135.09261 | 13298 ft | 333 kts | 223° |
| 2026-04-16 18:58 | 57.65324 | -135.11836 | 12870 ft | 328 kts | 223° |
| 2026-04-16 18:59 | 57.63511 | -135.14370 | 12444 ft | 322 kts | 223° |
| 2026-04-16 18:59 | 57.61727 | -135.16867 | 12039 ft | 316 kts | 223° |
| 2026-04-16 18:59 | 57.60000 | -135.19274 | 11658 ft | 311 kts | 223° |
| 2026-04-16 18:59 | 57.58272 | -135.21681 | 11260 ft | 306 kts | 223° |
| 2026-04-16 19:00 | 57.56573 | -135.24057 | 10866 ft | 304 kts | 223° |